Time;durP1;ratioP1;P1;durP2;ratioP2;P2;SDS_P1;SDS_P2;PMS_P1;PMS_P2;Temp;Humidity;BMP_temperature;BMP_pressure;BME280_temperature;BME280_humidity;BME280_pressure;Samples;Min_cycle;Max_cycle;Signal;HPM_P1;HPM_P2
2023/09/04 00:00:36;;;;;;;;;;;;;;;23.71;58.26;101997.47;4177994;28;19933;-59
2023/09/04 00:02:37;;;;;;;;;;;;;;;23.71;58.40;101992.13;4178967;28;19956;-59
2023/09/04 00:04:39;;;;;;;;;;;;;;;23.70;58.63;101988.56;4162699;28;19925;-59
2023/09/04 00:06:41;;;;;;;;;;;;;;;23.70;58.38;101993.06;4161114;28;20396;-59
2023/09/04 00:08:43;;;;;;;;;;;;;;;23.69;58.71;101991.34;4162466;28;19926;-59
2023/09/04 00:10:44;;;;;;;;;;;;;;;23.68;58.40;101995.88;4161491;28;19929;-59
2023/09/04 00:12:46;;;;;;;;;;;;;;;23.67;58.66;101991.47;4161768;28;19925;-59
2023/09/04 00:14:47;;;;;;;;;;;;;;;23.66;58.54;101992.44;4162315;28;19929;-59
2023/09/04 00:16:49;;;;;;;;;;;;;;;23.67;58.49;101987.91;4166566;28;19929;-60
2023/09/04 00:18:50;;;;;;;;;;;;;;;23.66;58.62;101994.25;4195042;28;20333;-60
2023/09/04 00:20:52;;;;;;;;;;;;;;;23.65;58.61;101987.19;4194293;28;19924;-60
2023/09/04 00:22:55;;;;;;;;;;;;;;;23.64;58.86;101989.00;4195133;28;20379;-60
2023/09/04 00:24:57;;;;;;;;;;;;;;;23.63;58.69;101981.06;4195248;28;19925;-59
2023/09/04 00:26:58;;;;;;;;;;;;;;;23.63;58.70;101984.59;4194856;28;19928;-61
2023/09/04 00:29:00;;;;;;;;;;;;;;;23.62;58.57;101980.19;4195071;28;19959;-60
2023/09/04 00:31:01;;;;;;;;;;;;;;;23.62;58.71;101974.81;4194180;28;20314;-60
2023/09/04 00:33:03;;;;;;;;;;;;;;;23.62;58.91;101974.81;4195084;28;19925;-60
2023/09/04 00:35:05;;;;;;;;;;;;;;;23.59;58.61;101975.88;4194929;28;20019;-59
2023/09/04 00:37:09;;;;;;;;;;;;;;;23.57;58.87;101971.59;4194974;28;20395;-60
2023/09/04 00:39:11;;;;;;;;;;;;;;;23.56;59.08;101976.13;4194948;28;19925;-60
2023/09/04 00:41:13;;;;;;;;;;;;;;;23.54;59.14;101971.81;4175895;28;19947;-60
2023/09/04 00:43:14;;;;;;;;;;;;;;;23.56;59.01;101975.25;4194441;28;19992;-60
2023/09/04 00:45:16;;;;;;;;;;;;;;;23.54;58.77;101975.34;4209962;27;20007;-59
2023/09/04 00:47:18;;;;;;;;;;;;;;;23.54;58.64;101971.81;4211483;28;19934;-59
2023/09/04 00:49:20;;;;;;;;;;;;;;;23.53;59.01;101965.56;4211542;28;19960;-60
2023/09/04 00:51:22;;;;;;;;;;;;;;;23.53;58.81;101964.72;4210525;28;20012;-60
2023/09/04 00:53:25;;;;;;;;;;;;;;;23.51;59.04;101964.81;4211416;28;19928;-60
2023/09/04 00:55:26;;;;;;;;;;;;;;;23.51;59.12;101964.81;4211635;28;20019;-60
2023/09/04 00:57:28;;;;;;;;;;;;;;;23.50;58.93;101965.81;4211196;28;20412;-60
2023/09/04 00:59:29;;;;;;;;;;;;;;;23.49;58.88;101965.91;4211199;28;19963;-59
2023/09/04 01:01:31;;;;;;;;;;;;;;;23.49;59.16;101960.53;4210438;28;19924;-60
2023/09/04 01:03:33;;;;;;;;;;;;;;;23.48;58.97;101954.31;4203964;28;19938;-60
2023/09/04 01:05:34;;;;;;;;;;;;;;;23.47;59.19;101949.91;4194707;28;19936;-60
2023/09/04 01:07:37;;;;;;;;;;;;;;;23.47;59.06;101954.44;4194720;28;19959;-60
2023/09/04 01:09:40;;;;;;;;;;;;;;;23.47;59.15;101960.66;4194399;28;19936;-60
2023/09/04 01:11:51;;;;;;;;;;;;;;;23.47;58.77;101962.50;4193426;27;19928;-60
2023/09/04 01:13:56;;;;;;;;;;;;;;;23.45;58.95;101962.56;4194647;28;20279;-60
2023/09/04 01:15:58;;;;;;;;;;;;;;;23.45;59.19;101957.19;4194237;28;19973;-59
2023/09/04 01:18:01;;;;;;;;;;;;;;;23.44;59.15;101956.34;4194147;28;19924;-60
2023/09/04 01:20:23;;;;;;;;;;;;;;;23.44;58.91;101960.88;4194465;28;19956;-60
2023/09/04 01:22:26;;;;;;;;;;;;;;;23.43;59.02;101962.69;4193066;28;19924;-60
2023/09/04 01:24:27;;;;;;;;;;;;;;;23.45;58.94;101959.88;4194334;28;19935;-59
2023/09/04 01:26:29;;;;;;;;;;;;;;;23.44;58.88;101958.19;4194603;28;19924;-60
2023/09/04 01:28:31;;;;;;;;;;;;;;;23.43;59.28;101956.47;4194093;28;19925;-60
2023/09/04 01:30:43;;;;;;;;;;;;;;;23.41;58.97;101956.56;4194093;28;19925;-61
2023/09/04 01:32:48;;;;;;;;;;;;;;;23.40;59.04;101952.19;4194036;28;20042;-60
2023/09/04 01:34:51;;;;;;;;;;;;;;;23.40;58.87;101946.81;4194261;28;19928;-60
2023/09/04 01:36:54;;;;;;;;;;;;;;;23.40;59.11;101946.81;4194403;28;20031;-60
2023/09/04 01:38:56;;;;;;;;;;;;;;;23.39;58.92;101942.41;4194309;28;19928;-60
2023/09/04 01:40:58;;;;;;;;;;;;;;;23.39;58.93;101953.16;4193128;28;19924;-60
2023/09/04 01:42:59;;;;;;;;;;;;;;;23.39;59.12;101945.09;4194013;28;20003;-59
2023/09/04 01:45:02;;;;;;;;;;;;;;;23.38;59.15;101945.19;4206897;28;19924;-60
2023/09/04 01:47:03;;;;;;;;;;;;;;;23.37;59.20;101933.59;4211004;28;20345;-59
2023/09/04 01:49:05;;;;;;;;;;;;;;;23.36;58.93;101929.19;4210838;28;20393;-60
2023/09/04 01:51:06;;;;;;;;;;;;;;;23.36;59.02;101934.56;4209965;28;19930;-60
2023/09/04 01:53:08;;;;;;;;;;;;;;;23.35;59.25;101932.84;4210568;28;19935;-60
2023/09/04 01:55:09;;;;;;;;;;;;;;;23.34;59.02;101933.78;4211704;28;19924;-59
2023/09/04 01:57:11;;;;;;;;;;;;;;;23.34;59.32;101928.44;4214135;28;19931;-59
2023/09/04 01:59:12;;;;;;;;;;;;;;;23.34;59.16;101932.94;4213643;28;19924;-59
2023/09/04 02:01:14;;;;;;;;;;;;;;;23.34;59.18;101925.75;4212720;28;19950;-60
2023/09/04 02:03:15;;;;;;;;;;;;;;;23.34;59.17;101920.38;4190918;28;19978;-60
2023/09/04 02:05:17;;;;;;;;;;;;;;;23.33;59.30;101917.81;4196753;28;19925;-60
2023/09/04 02:07:19;;;;;;;;;;;;;;;23.34;59.10;101916.84;4197024;28;20353;-60
2023/09/04 02:09:20;;;;;;;;;;;;;;;23.33;59.10;101901.69;4196552;28;20015;-59
2023/09/04 02:11:22;;;;;;;;;;;;;;;23.31;59.07;101907.19;4206359;28;19932;-60
2023/09/04 02:13:23;;;;;;;;;;;;;;;23.30;59.08;101908.16;4213608;28;20300;-60
2023/09/04 02:15:25;;;;;;;;;;;;;;;23.30;59.10;101897.41;4213486;28;20007;-60
2023/09/04 02:17:26;;;;;;;;;;;;;;;23.29;59.21;101899.25;4197684;28;19924;-59
2023/09/04 02:19:28;;;;;;;;;;;;;;;23.27;59.03;101893.13;4196595;28;19942;-60
2023/09/04 02:21:29;;;;;;;;;;;;;;;23.28;59.20;101893.97;4195816;28;19964;-59
2023/09/04 02:23:31;;;;;;;;;;;;;;;23.27;59.22;101882.38;4196320;28;19924;-60
2023/09/04 02:25:33;;;;;;;;;;;;;;;23.26;59.27;101891.41;4196813;28;19924;-60
2023/09/04 02:27:34;;;;;;;;;;;;;;;23.26;59.11;101887.88;4196641;28;20024;-60
2023/09/04 02:29:36;;;;;;;;;;;;;;;23.24;59.28;101881.75;4196638;28;20306;-59
2023/09/04 02:31:37;;;;;;;;;;;;;;;23.26;59.11;101885.19;4195723;28;19971;-60
2023/09/04 02:33:39;;;;;;;;;;;;;;;23.24;59.41;101882.59;4196581;28;19935;-59
2023/09/04 02:35:41;;;;;;;;;;;;;;;23.25;58.95;101878.09;4178835;28;19995;-59
2023/09/04 02:37:42;;;;;;;;;;;;;;;23.24;59.21;101881.75;4196150;28;19969;-60
2023/09/04 02:39:44;;;;;;;;;;;;;;;23.24;59.27;101881.75;4196407;28;20027;-60
2023/09/04 02:41:45;;;;;;;;;;;;;;;23.23;59.17;101880.91;4195361;28;19938;-60
2023/09/04 02:43:47;;;;;;;;;;;;;;;23.23;59.29;101877.34;4199014;28;19983;-59
2023/09/04 02:45:48;;;;;;;;;;;;;;;23.22;59.29;101873.81;4213220;28;20276;-59
2023/09/04 02:47:50;;;;;;;;;;;;;;;23.21;59.20;101874.78;4213084;28;20397;-59
2023/09/04 02:49:52;;;;;;;;;;;;;;;23.21;59.40;101865.84;4213260;28;20453;-60
2023/09/04 02:51:53;;;;;;;;;;;;;;;23.21;59.30;101868.53;4211852;28;19947;-60
2023/09/04 02:53:55;;;;;;;;;;;;;;;23.21;59.42;101865.84;4213147;28;19925;-60
2023/09/04 02:55:56;;;;;;;;;;;;;;;23.19;59.15;101865.97;4213246;28;19931;-60
2023/09/04 02:57:58;;;;;;;;;;;;;;;23.19;59.29;101862.44;4212990;28;20015;-59
2023/09/04 03:00:05;;;;;;;;;;;;;;;23.19;59.48;101859.75;4212804;28;19930;-60
2023/09/04 03:02:07;;;;;;;;;;;;;;;23.18;59.31;101856.19;4194151;28;20026;-59
2023/09/04 03:04:09;;;;;;;;;;;;;;;23.18;59.29;101864.25;4182982;28;19981;-58
2023/09/04 03:06:11;;;;;;;;;;;;;;;23.18;59.40;101863.41;4195612;28;20097;-58
2023/09/04 03:08:12;;;;;;;;;;;;;;;23.17;59.23;101853.63;4195922;28;19971;-58
2023/09/04 03:10:14;;;;;;;;;;;;;;;23.18;59.45;101868.78;4196222;28;20019;-59
2023/09/04 03:12:15;;;;;;;;;;;;;;;23.17;59.42;101872.41;4195158;28;19968;-58
2023/09/04 03:14:17;;;;;;;;;;;;;;;23.16;59.30;101874.22;4196072;28;20361;-58
2023/09/04 03:16:18;;;;;;;;;;;;;;;23.16;59.34;101870.66;4195892;28;20309;-58
2023/09/04 03:18:20;;;;;;;;;;;;;;;23.16;59.49;101867.97;4195560;27;19936;-58
2023/09/04 03:20:22;;;;;;;;;;;;;;;23.14;59.54;101871.63;4196010;28;20015;-59
2023/09/04 03:22:24;;;;;;;;;;;;;;;23.14;59.62;101868.94;4194960;28;19964;-57
2023/09/04 03:24:26;;;;;;;;;;;;;;;23.12;59.50;101865.53;4196019;28;19925;-59
2023/09/04 03:26:28;;;;;;;;;;;;;;;23.13;59.35;101866.38;4196035;28;19971;-58
2023/09/04 03:28:29;;;;;;;;;;;;;;;22.94;59.36;101834.59;4195596;28;20433;-58
2023/09/04 03:30:32;;;;;;;;;;;;;;;23.13;59.30;101866.38;4195956;28;20357;-58
2023/09/04 03:32:33;;;;;;;;;;;;;;;23.12;59.20;101857.47;4194821;28;19924;-59
2023/09/04 03:34:36;;;;;;;;;;;;;;;23.12;59.27;101857.47;4195752;28;20449;-60
2023/09/04 03:36:37;;;;;;;;;;;;;;;23.11;59.23;101853.06;4195417;28;19969;-58
2023/09/04 03:38:39;;;;;;;;;;;;;;;23.10;59.37;101848.66;4195681;28;20030;-58
2023/09/04 03:40:41;;;;;;;;;;;;;;;23.09;59.53;101846.09;4195573;28;19924;-58
2023/09/04 03:42:42;;;;;;;;;;;;;;;23.08;59.38;101845.22;4194749;28;19925;-58
2023/09/04 03:44:44;;;;;;;;;;;;;;;23.07;59.61;101840.81;4206262;28;20015;-59
2023/09/04 03:46:46;;;;;;;;;;;;;;;23.08;59.33;101852.44;4212375;28;20300;-58
2023/09/04 03:48:47;;;;;;;;;;;;;;;23.06;59.61;101836.44;4194362;28;19925;-59
2023/09/04 03:50:49;;;;;;;;;;;;;;;23.07;59.63;101848.03;4212027;28;19932;-59
2023/09/04 03:52:50;;;;;;;;;;;;;;;23.06;59.59;101852.56;4211286;28;19933;-58
2023/09/04 03:54:52;;;;;;;;;;;;;;;23.06;59.44;101859.72;4212399;28;19986;-59
2023/09/04 03:56:53;;;;;;;;;;;;;;;23.06;59.36;101857.03;4212521;28;20392;-58
2023/09/04 03:58:55;;;;;;;;;;;;;;;23.06;59.43;101865.09;4194309;28;19975;-59
2023/09/04 04:00:57;;;;;;;;;;;;;;;23.06;59.34;101859.72;4212095;28;19930;-59
2023/09/04 04:03:02;;;;;;;;;;;;;;;23.05;59.51;101855.31;4208851;28;19957;-59
2023/09/04 04:05:04;;;;;;;;;;;;;;;23.03;59.55;101859.94;4177359;28;20016;-59
2023/09/04 04:07:06;;;;;;;;;;;;;;;23.02;59.38;101855.56;4177893;28;19924;-59
2023/09/04 04:09:07;;;;;;;;;;;;;;;23.01;59.19;101854.66;4195194;28;19964;-58
2023/09/04 04:11:10;;;;;;;;;;;;;;;23.01;59.42;101845.78;4194713;28;19928;-59
2023/09/04 04:13:11;;;;;;;;;;;;;;;23.00;59.65;101844.91;4195117;28;19999;-58
2023/09/04 04:15:13;;;;;;;;;;;;;;;23.01;59.50;101845.78;4195229;28;19932;-58
2023/09/04 04:17:14;;;;;;;;;;;;;;;22.99;59.71;101843.22;4176686;28;20004;-58
2023/09/04 04:19:16;;;;;;;;;;;;;;;23.00;59.41;101852.09;4194715;28;20412;-59
2023/09/04 04:21:17;;;;;;;;;;;;;;;23.00;59.44;101844.06;4194464;28;19932;-59
2023/09/04 04:23:19;;;;;;;;;;;;;;;23.00;59.59;101852.09;4195096;27;19932;-59
2023/09/04 04:25:20;;;;;;;;;;;;;;;22.98;59.72;101850.38;4195166;28;20398;-59
2023/09/04 04:27:22;;;;;;;;;;;;;;;22.98;59.71;101842.34;4210848;28;19932;-58
2023/09/04 04:29:23;;;;;;;;;;;;;;;22.99;59.59;101843.22;4194920;28;19925;-59
2023/09/04 04:31:25;;;;;;;;;;;;;;;22.97;59.79;101839.78;4194199;28;19928;-59
2023/09/04 04:33:26;;;;;;;;;;;;;;;22.96;59.66;101840.72;4194631;28;20011;-58
2023/09/04 04:35:28;;;;;;;;;;;;;;;22.95;59.68;101844.38;4194946;28;20067;-58
2023/09/04 04:37:30;;;;;;;;;;;;;;;22.94;59.74;101840.84;4195103;28;19928;-59
2023/09/04 04:39:31;;;;;;;;;;;;;;;22.93;59.44;101841.81;4194654;28;19964;-58
2023/09/04 04:41:33;;;;;;;;;;;;;;;22.93;59.73;101840.94;4194475;28;20115;-58
2023/09/04 04:43:36;;;;;;;;;;;;;;;22.91;59.70;101841.06;4195865;28;19931;-58
2023/09/04 04:45:37;;;;;;;;;;;;;;;22.92;59.58;101841.94;4211549;28;19979;-58
2023/09/04 04:47:39;;;;;;;;;;;;;;;22.92;59.83;101841.94;4211393;28;19924;-59
2023/09/04 04:49:40;;;;;;;;;;;;;;;22.91;59.41;101837.53;4211649;28;19924;-59
2023/09/04 04:51:42;;;;;;;;;;;;;;;22.90;59.55;101835.81;4210582;28;19935;-58
2023/09/04 04:53:43;;;;;;;;;;;;;;;22.89;59.57;101840.31;4211395;28;19931;-58
2023/09/04 04:55:45;;;;;;;;;;;;;;;22.89;59.86;101836.75;4211452;28;20124;-58
2023/09/04 04:57:46;;;;;;;;;;;;;;;22.88;59.74;101837.72;4211502;28;20401;-58
2023/09/04 04:59:48;;;;;;;;;;;;;;;22.88;59.73;101845.78;4211356;28;20288;-59
2023/09/04 05:01:49;;;;;;;;;;;;;;;22.87;59.65;101841.38;4210729;28;19928;-58
2023/09/04 05:03:51;;;;;;;;;;;;;;;22.87;59.86;101847.59;4201349;28;19956;-58
2023/09/04 05:05:52;;;;;;;;;;;;;;;22.87;59.58;101844.94;4194938;28;19929;-59
2023/09/04 05:07:54;;;;;;;;;;;;;;;22.86;59.56;101843.19;4194709;28;20021;-58
2023/09/04 05:09:56;;;;;;;;;;;;;;;22.86;59.89;101845.88;4194592;28;19928;-59
2023/09/04 05:11:58;;;;;;;;;;;;;;;22.86;59.88;101845.88;4193568;28;19959;-59
2023/09/04 05:14:04;;;;;;;;;;;;;;;22.85;59.70;101846.00;4194576;28;19925;-58
2023/09/04 05:16:06;;;;;;;;;;;;;;;22.84;59.90;101846.97;4176810;28;19982;-58
2023/09/04 05:18:07;;;;;;;;;;;;;;;22.84;59.62;101842.44;4194047;28;19964;-58
2023/09/04 05:20:09;;;;;;;;;;;;;;;22.84;59.62;101846.97;4209935;28;19958;-58
2023/09/04 05:22:11;;;;;;;;;;;;;;;22.85;59.64;101857.56;4193615;28;19924;-59
2023/09/04 05:24:17;;;;;;;;;;;;;;;22.73;59.67;101840.50;4177390;28;20019;-58
2023/09/04 05:26:24;;;;;;;;;;;;;;;22.84;59.47;101861.22;4194536;28;19956;-59
2023/09/04 05:28:25;;;;;;;;;;;;;;;22.84;59.88;101855.84;4194586;27;20430;-59
2023/09/04 05:30:27;;;;;;;;;;;;;;;22.83;59.65;101856.81;4195949;28;19925;-58
2023/09/04 05:32:28;;;;;;;;;;;;;;;22.83;59.74;101850.59;4196035;28;19925;-59
2023/09/04 05:34:39;;;;;;;;;;;;;;;22.81;59.60;101856.94;4197411;28;19925;-59
2023/09/04 05:36:41;;;;;;;;;;;;;;;22.81;59.55;101853.41;4197363;28;19959;-58
2023/09/04 05:38:42;;;;;;;;;;;;;;;22.69;59.79;101833.66;4197383;28;20043;-60
2023/09/04 05:40:47;;;;;;;;;;;;;;;22.80;59.47;101851.69;4197159;28;19924;-58
2023/09/04 05:42:49;;;;;;;;;;;;;;;22.80;59.88;101846.31;4196573;27;19925;-59
2023/09/04 05:44:50;;;;;;;;;;;;;;;22.79;59.91;101848.13;4208778;28;19928;-57
2023/09/04 05:46:52;;;;;;;;;;;;;;;22.79;59.49;101844.59;4213527;28;19930;-58
2023/09/04 05:48:53;;;;;;;;;;;;;;;22.78;59.51;101851.81;4213888;28;19924;-58
2023/09/04 05:50:55;;;;;;;;;;;;;;;22.78;59.57;101850.91;4214021;28;20012;-58
2023/09/04 05:52:57;;;;;;;;;;;;;;;22.76;59.49;101851.03;4212823;28;19932;-58
2023/09/04 05:54:58;;;;;;;;;;;;;;;22.76;59.84;101855.53;4214045;27;19983;-58
2023/09/04 05:57:00;;;;;;;;;;;;;;;22.77;59.71;101852.75;4214009;28;19964;-58
2023/09/04 05:59:06;;;;;;;;;;;;;;;22.76;59.64;101852.84;4213599;28;19931;-58
2023/09/04 06:01:07;;;;;;;;;;;;;;;22.76;59.89;101856.41;4213358;28;19924;-58
2023/09/04 06:03:09;;;;;;;;;;;;;;;22.75;59.66;101862.72;4208917;28;19960;-59
2023/09/04 06:05:11;;;;;;;;;;;;;;;22.74;59.56;101858.31;4196989;28;19928;-59
2023/09/04 06:07:14;;;;;;;;;;;;;;;22.75;59.77;101867.25;4179316;28;19925;-58
2023/09/04 06:09:17;;;;;;;;;;;;;;;22.74;59.71;101866.38;4196791;28;19924;-59
2023/09/04 06:11:19;;;;;;;;;;;;;;;22.75;59.87;101865.41;4196869;28;19964;-59
2023/09/04 06:13:25;;;;;;;;;;;;;;;22.74;59.80;101868.19;4195921;28;19951;-58
2023/09/04 06:15:27;;;;;;;;;;;;;;;22.73;59.60;101864.66;4196725;28;19924;-58
2023/09/04 06:17:29;;;;;;;;;;;;;;;22.74;59.77;101866.38;4196533;28;19924;-58
2023/09/04 06:19:30;;;;;;;;;;;;;;;22.74;59.59;101865.53;4196681;28;20405;-58
2023/09/04 06:21:37;;;;;;;;;;;;;;;22.74;59.58;101873.56;4196062;28;20003;-58
2023/09/04 06:23:38;;;;;;;;;;;;;;;22.73;59.48;101864.66;4196158;28;19975;-58
2023/09/04 06:25:46;;;;;;;;;;;;;;;22.73;59.70;101861.13;4196724;28;19929;-58
2023/09/04 06:27:47;;;;;;;;;;;;;;;22.72;59.84;101870.13;4196629;28;20120;-58
2023/09/04 06:29:49;;;;;;;;;;;;;;;22.73;59.62;101871.84;4196181;28;19935;-59
2023/09/04 06:31:51;;;;;;;;;;;;;;;22.72;59.52;101870.97;4195901;28;19936;-58
2023/09/04 06:33:53;;;;;;;;;;;;;;;22.72;59.33;101873.66;4196311;28;19925;-58
2023/09/04 06:36:00;;;;;;;;;;;;;;;22.71;59.74;101869.28;4196607;28;19925;-59
2023/09/04 06:38:02;;;;;;;;;;;;;;;22.70;59.56;101867.56;4196484;28;20015;-59
2023/09/04 06:40:03;;;;;;;;;;;;;;;22.70;59.64;101866.69;4196493;28;19929;-58
2023/09/04 06:42:05;;;;;;;;;;;;;;;22.69;59.69;101871.19;4195019;28;19925;-58
2023/09/04 06:44:06;;;;;;;;;;;;;;;22.70;59.80;101874.72;4201083;28;19924;-58
2023/09/04 06:46:08;;;;;;;;;;;;;;;22.71;59.35;101863.03;4213280;28;20020;-58
2023/09/04 06:48:09;;;;;;;;;;;;;;;22.69;59.36;101863.16;4213076;28;19976;-57
2023/09/04 06:50:11;;;;;;;;;;;;;;;22.68;59.39;101861.44;4213254;28;19928;-58
2023/09/04 06:52:13;;;;;;;;;;;;;;;22.67;59.69;101861.53;4212294;28;19924;-58
2023/09/04 06:54:14;;;;;;;;;;;;;;;22.67;59.72;101862.38;4213132;28;20324;-58
2023/09/04 06:56:16;;;;;;;;;;;;;;;22.66;59.62;101866.03;4213252;28;19928;-59
2023/09/04 06:58:24;;;;;;;;;;;;;;;22.67;59.53;101878.47;4212670;28;19925;-58
2023/09/04 07:00:26;;;;;;;;;;;;;;;22.67;59.64;101877.63;4212944;28;19998;-58
2023/09/04 07:02:28;;;;;;;;;;;;;;;22.66;59.25;101882.13;4212341;27;19992;-58
2023/09/04 07:04:29;;;;;;;;;;;;;;;22.65;59.66;101875.91;4197831;28;19953;-58
2023/09/04 07:06:31;;;;;;;;;;;;;;;22.64;59.59;101871.50;4196222;28;19929;-58
2023/09/04 07:08:32;;;;;;;;;;;;;;;22.64;59.61;101871.50;4196323;28;19931;-58
2023/09/04 07:10:35;;;;;;;;;;;;;;;22.64;59.19;101873.34;4196188;28;19928;-58
2023/09/04 07:12:36;;;;;;;;;;;;;;;22.64;59.54;101867.97;4194693;28;19930;-58
2023/09/04 07:14:39;;;;;;;;;;;;;;;22.64;59.66;101870.66;4196324;28;19989;-58
2023/09/04 07:16:41;;;;;;;;;;;;;;;22.63;59.32;101871.63;4195806;28;20007;-58
2023/09/04 07:18:58;;;;;;;;;;;;;;;22.63;59.11;101866.25;4195873;28;20373;-58
2023/09/04 07:20:59;;;;;;;;;;;;;;;22.63;59.62;101860.91;4195821;28;20015;-59
2023/09/04 07:23:01;;;;;;;;;;;;;;;22.63;59.60;101853.69;4194724;28;19929;-58
2023/09/04 07:25:21;;;;;;;;;;;;;;;22.63;59.46;101861.75;4196021;28;19924;-58
2023/09/04 07:27:24;;;;;;;;;;;;;;;22.63;59.19;101853.69;4195690;28;19925;-58
2023/09/04 07:29:26;;;;;;;;;;;;;;;22.64;59.21;101849.22;4196066;28;19925;-59
2023/09/04 07:31:28;;;;;;;;;;;;;;;22.65;59.44;101856.28;4195920;28;19924;-59
2023/09/04 07:33:30;;;;;;;;;;;;;;;22.64;59.14;101858.09;4194743;28;20397;-59
2023/09/04 07:35:31;;;;;;;;;;;;;;;22.67;59.12;101856.19;4196035;28;20357;-58
2023/09/04 07:37:33;;;;;;;;;;;;;;;22.65;59.02;101862.50;4195982;28;20301;-59
2023/09/04 07:39:35;;;;;;;;;;;;;;;22.66;59.05;101855.31;4195729;28;19924;-60
2023/09/04 07:41:37;;;;;;;;;;;;;;;22.67;58.95;101856.19;4195094;28;20338;-58
2023/09/04 07:43:38;;;;;;;;;;;;;;;22.67;58.91;101854.34;4196101;28;19924;-58
2023/09/04 07:45:40;;;;;;;;;;;;;;;22.68;58.80;101852.53;4212421;28;19931;-59
2023/09/04 07:47:41;;;;;;;;;;;;;;;22.68;58.61;101850.69;4212327;28;20335;-59
2023/09/04 07:49:43;;;;;;;;;;;;;;;22.68;58.74;101844.50;4212564;28;19932;-58
2023/09/04 07:51:45;;;;;;;;;;;;;;;22.70;58.63;101847.91;4212033;28;19928;-58
2023/09/04 07:53:46;;;;;;;;;;;;;;;22.69;58.72;101848.91;4210218;28;19924;-58
2023/09/04 07:55:48;;;;;;;;;;;;;;;22.70;58.65;101855.94;4212443;28;20404;-59
2023/09/04 07:57:55;;;;;;;;;;;;;;;22.70;58.78;101853.28;4212094;28;19924;-59
2023/09/04 07:59:58;;;;;;;;;;;;;;;22.72;58.75;101856.72;4212126;28;20041;-59
2023/09/04 08:02:00;;;;;;;;;;;;;;;22.72;58.53;101845.97;4211310;28;19931;-57
2023/09/04 08:04:02;;;;;;;;;;;;;;;22.72;58.38;101845.97;4200847;28;19960;-58
2023/09/04 08:06:04;;;;;;;;;;;;;;;22.73;58.36;101851.22;4195521;28;20381;-58
2023/09/04 08:08:10;;;;;;;;;;;;;;;22.73;58.34;101851.22;4195269;28;20407;-58
2023/09/04 08:10:13;;;;;;;;;;;;;;;22.74;58.46;101849.44;4195293;28;19928;-59
2023/09/04 08:12:14;;;;;;;;;;;;;;;22.76;58.36;101847.47;4193994;28;20096;-59
2023/09/04 08:14:16;;;;;;;;;;;;;;;22.76;58.28;101842.13;4195102;28;20301;-58
2023/09/04 08:16:18;;;;;;;;;;;;;;;22.76;57.89;101844.78;4195178;28;20130;-59
2023/09/04 08:18:20;;;;;;;;;;;;;;;22.78;58.02;101840.19;4195010;28;19925;-59
2023/09/04 08:20:21;;;;;;;;;;;;;;;22.78;58.16;101835.72;4195256;28;19928;-59
2023/09/04 08:22:23;;;;;;;;;;;;;;;22.79;57.99;101842.75;4194746;28;20376;-59
2023/09/04 08:24:24;;;;;;;;;;;;;;;22.79;57.90;101840.06;4194950;28;19931;-60
2023/09/04 08:26:26;;;;;;;;;;;;;;;22.81;58.13;101837.31;4194978;28;20453;-59
2023/09/04 08:28:27;;;;;;;;;;;;;;;22.81;57.82;101845.34;4194930;28;19931;-58
2023/09/04 08:30:29;;;;;;;;;;;;;;;22.83;57.96;101839.88;4177231;28;19956;-58
2023/09/04 08:32:31;;;;;;;;;;;;;;;22.85;57.89;101843.31;4193929;28;19971;-58
2023/09/04 08:34:32;;;;;;;;;;;;;;;22.86;58.22;101851.25;4195061;28;20011;-59
2023/09/04 08:36:34;;;;;;;;;;;;;;;22.85;57.72;101830.75;4195056;28;19924;-58
2023/09/04 08:38:35;;;;;;;;;;;;;;;22.87;57.98;101841.38;4195092;28;20007;-59
2023/09/04 08:40:41;;;;;;;;;;;;;;;22.85;57.67;101830.75;4194724;28;19969;-58
2023/09/04 08:42:43;;;;;;;;;;;;;;;22.87;57.82;101828.84;4193766;28;19924;-58
2023/09/04 08:44:46;;;;;;;;;;;;;;;22.87;57.53;101822.59;4205560;28;19928;-58
2023/09/04 08:46:50;;;;;;;;;;;;;;;22.87;57.82;101826.16;4211729;28;19956;-58
2023/09/04 08:48:53;;;;;;;;;;;;;;;22.88;57.75;101825.19;4211414;28;19975;-58
2023/09/04 08:50:55;;;;;;;;;;;;;;;22.88;57.51;101827.00;4193628;28;19964;-58
2023/09/04 08:52:57;;;;;;;;;;;;;;;22.89;57.82;101820.66;4192713;28;19928;-58
2023/09/04 08:54:59;;;;;;;;;;;;;;;22.89;57.37;101818.00;4211085;28;19924;-58
2023/09/04 08:57:01;;;;;;;;;;;;;;;22.89;57.42;101804.56;4211677;28;19924;-58
2023/09/04 08:59:02;;;;;;;;;;;;;;;22.90;57.90;101808.97;4211523;28;19935;-59
2023/09/04 09:01:04;;;;;;;;;;;;;;;22.90;57.48;101801.78;4211363;28;19967;-59
2023/09/04 09:03:06;;;;;;;;;;;;;;;22.92;57.85;101809.75;4207241;28;19924;-59
2023/09/04 09:05:08;;;;;;;;;;;;;;;22.92;57.58;101810.59;4194261;28;19947;-58
2023/09/04 09:07:10;;;;;;;;;;;;;;;22.94;57.37;101813.16;4194536;28;20382;-58
2023/09/04 09:09:12;;;;;;;;;;;;;;;22.93;57.44;101806.94;4194240;28;19925;-58
2023/09/04 09:11:13;;;;;;;;;;;;;;;22.95;57.57;101804.13;4194663;28;19931;-58
2023/09/04 09:13:15;;;;;;;;;;;;;;;22.96;57.34;101801.34;4193556;28;19953;-58
2023/09/04 09:15:18;;;;;;;;;;;;;;;22.97;57.35;101813.78;4194515;28;19925;-58
2023/09/04 09:17:19;;;;;;;;;;;;;;;22.98;57.49;101810.13;4194165;28;19928;-59
2023/09/04 09:19:21;;;;;;;;;;;;;;;23.00;57.52;101806.50;4194594;28;20373;-58
2023/09/04 09:21:25;;;;;;;;;;;;;;;23.01;57.49;101809.06;4194455;28;19975;-57
2023/09/04 09:23:28;;;;;;;;;;;;;;;23.01;57.69;101801.00;4193145;28;19924;-58
2023/09/04 09:25:29;;;;;;;;;;;;;;;23.02;57.33;101801.88;4194476;28;19924;-58
2023/09/04 09:27:31;;;;;;;;;;;;;;;23.03;57.35;101798.25;4194463;28;19924;-58
2023/09/04 09:29:33;;;;;;;;;;;;;;;23.03;57.29;101799.09;4194386;28;19925;-58
2023/09/04 09:31:36;;;;;;;;;;;;;;;23.04;57.69;101797.25;4194167;28;19998;-58
2023/09/04 09:33:38;;;;;;;;;;;;;;;23.05;57.32;101791.78;4193415;28;19959;-58
2023/09/04 09:35:40;;;;;;;;;;;;;;;23.06;57.48;101782.78;4194505;28;19932;-58
2023/09/04 09:37:42;;;;;;;;;;;;;;;23.07;57.43;101784.47;4194114;28;19935;-58
2023/09/04 09:39:43;;;;;;;;;;;;;;;23.09;57.38;101784.38;4194210;28;19931;-59
2023/09/04 09:41:45;;;;;;;;;;;;;;;23.11;57.22;101779.75;4194204;28;20358;-59
2023/09/04 09:43:47;;;;;;;;;;;;;;;23.12;57.58;101778.78;4196184;28;20385;-57
2023/09/04 09:45:49;;;;;;;;;;;;;;;23.12;57.26;101778.78;4211097;28;19966;-58
2023/09/04 09:47:51;;;;;;;;;;;;;;;23.13;57.24;101781.34;4193081;28;20435;-58
2023/09/04 09:49:54;;;;;;;;;;;;;;;23.16;57.29;101779.41;4210767;28;19935;-59
2023/09/04 09:51:56;;;;;;;;;;;;;;;23.17;57.15;101773.13;4210870;28;20029;-59
2023/09/04 09:53:58;;;;;;;;;;;;;;;23.17;57.03;101767.75;4191449;27;19924;-59
2023/09/04 09:56:00;;;;;;;;;;;;;;;23.18;57.21;101759.59;4210796;28;19975;-59
2023/09/04 09:58:01;;;;;;;;;;;;;;;23.19;57.18;101755.09;4210918;28;19924;-58
2023/09/04 10:00:04;;;;;;;;;;;;;;;23.20;56.97;101746.06;4192758;27;19928;-58
2023/09/04 10:02:06;;;;;;;;;;;;;;;23.22;57.34;101754.84;4210820;28;20027;-58
2023/09/04 10:04:08;;;;;;;;;;;;;;;23.22;57.13;101749.47;4197596;28;19931;-58
2023/09/04 10:06:10;;;;;;;;;;;;;;;23.24;56.94;101750.22;4194013;28;19953;-58
2023/09/04 10:08:13;;;;;;;;;;;;;;;23.25;57.03;101752.78;4175923;28;19924;-58
2023/09/04 10:10:14;;;;;;;;;;;;;;;23.27;57.04;101739.28;4176376;28;19932;-58
2023/09/04 10:12:33;;;;;;;;;;;;;;;23.28;57.09;101738.28;4193924;28;20347;-58
2023/09/04 10:14:38;;;;;;;;;;;;;;;23.28;56.84;101735.59;4176028;28;19925;-58
2023/09/04 10:16:42;;;;;;;;;;;;;;;23.30;56.73;101733.69;4195507;28;20012;-58
2023/09/04 10:18:46;;;;;;;;;;;;;;;23.32;56.63;101729.06;4196798;28;20225;-58
2023/09/04 10:20:48;;;;;;;;;;;;;;;23.34;56.87;101728.94;4196829;28;19948;-57
2023/09/04 10:22:52;;;;;;;;;;;;;;;23.35;56.85;101723.44;4195602;28;19928;-59
2023/09/04 10:24:56;;;;;;;;;;;;;;;23.35;56.86;101728.81;4196837;28;19928;-58
2023/09/04 10:27:02;;;;;;;;;;;;;;;23.37;56.73;101721.53;4196804;28;19977;-58